sensor_id;sensor_type;location;lat;lon;timestamp;P1;durP1;ratioP1;P2;durP2;ratioP2
5285;SDS011;2665;53.112;7.358;2022-10-17T00:00:48;3.53;;;2.30;;
5285;SDS011;2665;53.112;7.358;2022-10-17T00:03:14;8.90;;;2.37;;
5285;SDS011;2665;53.112;7.358;2022-10-17T00:05:41;5.50;;;2.73;;
5285;SDS011;2665;53.112;7.358;2022-10-17T00:08:09;4.07;;;2.90;;
5285;SDS011;2665;53.112;7.358;2022-10-17T00:10:36;3.40;;;2.20;;
5285;SDS011;2665;53.112;7.358;2022-10-17T00:13:03;4.00;;;2.13;;
5285;SDS011;2665;53.112;7.358;2022-10-17T00:15:29;9.30;;;2.57;;
5285;SDS011;2665;53.112;7.358;2022-10-17T00:17:55;3.43;;;2.40;;
5285;SDS011;2665;53.112;7.358;2022-10-17T00:20:20;6.47;;;2.53;;
5285;SDS011;2665;53.112;7.358;2022-10-17T00:22:46;9.43;;;2.60;;
5285;SDS011;2665;53.112;7.358;2022-10-17T00:25:12;4.70;;;2.27;;
5285;SDS011;2665;53.112;7.358;2022-10-17T00:27:37;4.40;;;2.50;;
5285;SDS011;2665;53.112;7.358;2022-10-17T00:30:05;6.47;;;2.20;;
5285;SDS011;2665;53.112;7.358;2022-10-17T00:32:33;4.17;;;2.13;;
5285;SDS011;2665;53.112;7.358;2022-10-17T00:34:59;4.13;;;2.30;;
5285;SDS011;2665;53.112;7.358;2022-10-17T00:37:25;4.37;;;2.07;;
5285;SDS011;2665;53.112;7.358;2022-10-17T00:39:52;3.23;;;2.33;;
5285;SDS011;2665;53.112;7.358;2022-10-17T00:42:17;6.10;;;2.50;;
5285;SDS011;2665;53.112;7.358;2022-10-17T00:47:12;6.43;;;2.57;;
5285;SDS011;2665;53.112;7.358;2022-10-17T00:49:41;8.77;;;3.23;;
5285;SDS011;2665;53.112;7.358;2022-10-17T00:54:47;4.97;;;3.17;;
5285;SDS011;2665;53.112;7.358;2022-10-17T00:57:16;6.63;;;3.87;;
5285;SDS011;2665;53.112;7.358;2022-10-17T00:59:43;5.77;;;2.90;;
5285;SDS011;2665;53.112;7.358;2022-10-17T01:02:14;6.07;;;3.20;;
5285;SDS011;2665;53.112;7.358;2022-10-17T01:04:42;7.73;;;3.20;;
5285;SDS011;2665;53.112;7.358;2022-10-17T01:07:10;8.93;;;3.90;;
5285;SDS011;2665;53.112;7.358;2022-10-17T01:09:36;9.83;;;3.80;;
5285;SDS011;2665;53.112;7.358;2022-10-17T01:14:40;6.93;;;3.00;;
5285;SDS011;2665;53.112;7.358;2022-10-17T01:17:24;6.10;;;2.97;;
5285;SDS011;2665;53.112;7.358;2022-10-17T01:28:42;8.53;;;3.43;;
5285;SDS011;2665;53.112;7.358;2022-10-17T01:36:18;5.33;;;3.17;;
5285;SDS011;2665;53.112;7.358;2022-10-17T01:38:56;8.07;;;4.70;;
5285;SDS011;2665;53.112;7.358;2022-10-17T01:44:12;6.33;;;3.03;;
5285;SDS011;2665;53.112;7.358;2022-10-17T01:47:24;4.73;;;2.60;;
5285;SDS011;2665;53.112;7.358;2022-10-17T01:49:33;4.17;;;3.13;;
5285;SDS011;2665;53.112;7.358;2022-10-17T01:52:03;7.70;;;3.43;;
5285;SDS011;2665;53.112;7.358;2022-10-17T01:54:42;7.57;;;3.33;;
5285;SDS011;2665;53.112;7.358;2022-10-17T01:57:19;5.20;;;3.57;;
5285;SDS011;2665;53.112;7.358;2022-10-17T01:59:50;10.60;;;3.10;;
5285;SDS011;2665;53.112;7.358;2022-10-17T02:02:19;7.80;;;2.80;;
5285;SDS011;2665;53.112;7.358;2022-10-17T02:04:46;6.40;;;3.13;;
5285;SDS011;2665;53.112;7.358;2022-10-17T02:07:14;7.40;;;3.77;;
5285;SDS011;2665;53.112;7.358;2022-10-17T02:09:40;5.30;;;3.60;;
5285;SDS011;2665;53.112;7.358;2022-10-17T02:25:42;6.70;;;3.10;;
5285;SDS011;2665;53.112;7.358;2022-10-17T02:31:06;3.70;;;3.00;;
5285;SDS011;2665;53.112;7.358;2022-10-17T02:33:48;3.47;;;2.60;;
5285;SDS011;2665;53.112;7.358;2022-10-17T02:36:27;8.63;;;3.20;;
5285;SDS011;2665;53.112;7.358;2022-10-17T02:38:56;6.23;;;2.60;;
5285;SDS011;2665;53.112;7.358;2022-10-17T02:41:23;4.50;;;2.80;;
5285;SDS011;2665;53.112;7.358;2022-10-17T02:43:49;6.10;;;3.10;;
5285;SDS011;2665;53.112;7.358;2022-10-17T02:46:17;4.27;;;3.17;;
5285;SDS011;2665;53.112;7.358;2022-10-17T02:48:47;5.83;;;2.83;;
5285;SDS011;2665;53.112;7.358;2022-10-17T02:51:22;5.07;;;3.40;;
5285;SDS011;2665;53.112;7.358;2022-10-17T02:56:26;5.10;;;3.23;;
5285;SDS011;2665;53.112;7.358;2022-10-17T02:58:56;5.27;;;4.00;;
5285;SDS011;2665;53.112;7.358;2022-10-17T03:01:24;6.90;;;3.00;;
5285;SDS011;2665;53.112;7.358;2022-10-17T03:03:50;5.93;;;3.13;;
5285;SDS011;2665;53.112;7.358;2022-10-17T03:06:16;6.63;;;3.30;;
5285;SDS011;2665;53.112;7.358;2022-10-17T03:08:41;7.10;;;3.80;;
5285;SDS011;2665;53.112;7.358;2022-10-17T03:11:07;11.90;;;3.37;;
5285;SDS011;2665;53.112;7.358;2022-10-17T03:13:33;5.40;;;3.27;;
5285;SDS011;2665;53.112;7.358;2022-10-17T03:15:58;6.57;;;3.30;;
5285;SDS011;2665;53.112;7.358;2022-10-17T03:18:24;5.27;;;3.40;;
5285;SDS011;2665;53.112;7.358;2022-10-17T03:20:49;6.70;;;3.90;;
5285;SDS011;2665;53.112;7.358;2022-10-17T03:23:15;4.13;;;3.43;;
5285;SDS011;2665;53.112;7.358;2022-10-17T03:25:41;5.50;;;3.50;;
5285;SDS011;2665;53.112;7.358;2022-10-17T03:28:06;7.03;;;3.80;;
5285;SDS011;2665;53.112;7.358;2022-10-17T03:30:33;6.20;;;4.33;;
5285;SDS011;2665;53.112;7.358;2022-10-17T03:32:59;3.90;;;3.30;;
5285;SDS011;2665;53.112;7.358;2022-10-17T03:35:25;5.17;;;3.13;;
5285;SDS011;2665;53.112;7.358;2022-10-17T03:37:51;4.60;;;3.37;;
5285;SDS011;2665;53.112;7.358;2022-10-17T03:40:16;4.47;;;3.43;;
5285;SDS011;2665;53.112;7.358;2022-10-17T03:42:42;6.00;;;4.03;;
5285;SDS011;2665;53.112;7.358;2022-10-17T03:45:08;4.30;;;3.67;;
5285;SDS011;2665;53.112;7.358;2022-10-17T03:47:34;4.30;;;3.50;;
5285;SDS011;2665;53.112;7.358;2022-10-17T03:49:59;4.97;;;3.80;;
5285;SDS011;2665;53.112;7.358;2022-10-17T03:52:25;6.47;;;4.10;;
5285;SDS011;2665;53.112;7.358;2022-10-17T03:54:50;3.73;;;2.93;;
5285;SDS011;2665;53.112;7.358;2022-10-17T03:57:17;9.87;;;3.80;;
5285;SDS011;2665;53.112;7.358;2022-10-17T03:59:43;7.10;;;3.70;;
5285;SDS011;2665;53.112;7.358;2022-10-17T04:02:08;6.50;;;4.13;;
5285;SDS011;2665;53.112;7.358;2022-10-17T04:04:34;4.90;;;3.40;;
5285;SDS011;2665;53.112;7.358;2022-10-17T04:07:00;13.90;;;4.97;;
5285;SDS011;2665;53.112;7.358;2022-10-17T04:09:25;4.70;;;3.40;;
5285;SDS011;2665;53.112;7.358;2022-10-17T04:11:51;6.20;;;4.13;;
5285;SDS011;2665;53.112;7.358;2022-10-17T04:14:16;5.13;;;4.13;;
5285;SDS011;2665;53.112;7.358;2022-10-17T04:16:42;7.30;;;4.37;;
5285;SDS011;2665;53.112;7.358;2022-10-17T04:19:11;4.40;;;4.00;;
5285;SDS011;2665;53.112;7.358;2022-10-17T04:21:38;5.80;;;4.77;;
5285;SDS011;2665;53.112;7.358;2022-10-17T04:24:03;7.43;;;4.83;;
5285;SDS011;2665;53.112;7.358;2022-10-17T04:26:29;4.97;;;4.30;;
5285;SDS011;2665;53.112;7.358;2022-10-17T04:28:55;10.67;;;4.93;;
5285;SDS011;2665;53.112;7.358;2022-10-17T04:31:20;5.63;;;4.93;;
5285;SDS011;2665;53.112;7.358;2022-10-17T04:33:47;4.90;;;3.67;;
5285;SDS011;2665;53.112;7.358;2022-10-17T04:36:15;6.00;;;4.47;;
5285;SDS011;2665;53.112;7.358;2022-10-17T04:38:43;5.17;;;4.43;;
5285;SDS011;2665;53.112;7.358;2022-10-17T04:41:10;6.70;;;4.87;;
5285;SDS011;2665;53.112;7.358;2022-10-17T04:43:37;6.23;;;4.53;;
5285;SDS011;2665;53.112;7.358;2022-10-17T04:46:08;4.80;;;4.07;;
5285;SDS011;2665;53.112;7.358;2022-10-17T04:48:36;6.30;;;4.47;;
5285;SDS011;2665;53.112;7.358;2022-10-17T04:51:03;10.70;;;5.13;;
5285;SDS011;2665;53.112;7.358;2022-10-17T04:53:34;5.93;;;5.33;;
5285;SDS011;2665;53.112;7.358;2022-10-17T04:56:01;7.03;;;4.80;;
5285;SDS011;2665;53.112;7.358;2022-10-17T04:58:31;5.63;;;4.53;;
5285;SDS011;2665;53.112;7.358;2022-10-17T05:00:57;5.17;;;4.53;;
5285;SDS011;2665;53.112;7.358;2022-10-17T05:03:22;6.53;;;4.37;;
5285;SDS011;2665;53.112;7.358;2022-10-17T05:05:48;7.60;;;4.67;;
5285;SDS011;2665;53.112;7.358;2022-10-17T05:08:13;10.87;;;5.20;;
5285;SDS011;2665;53.112;7.358;2022-10-17T05:10:40;5.00;;;4.07;;
5285;SDS011;2665;53.112;7.358;2022-10-17T05:13:07;6.10;;;4.87;;
5285;SDS011;2665;53.112;7.358;2022-10-17T05:15:33;7.80;;;4.43;;
5285;SDS011;2665;53.112;7.358;2022-10-17T05:17:59;7.93;;;4.63;;
5285;SDS011;2665;53.112;7.358;2022-10-17T05:20:25;8.13;;;4.67;;
5285;SDS011;2665;53.112;7.358;2022-10-17T05:22:51;6.87;;;4.97;;
5285;SDS011;2665;53.112;7.358;2022-10-17T05:25:17;6.13;;;4.57;;
5285;SDS011;2665;53.112;7.358;2022-10-17T05:27:43;5.40;;;4.10;;
5285;SDS011;2665;53.112;7.358;2022-10-17T05:30:09;5.80;;;4.30;;
5285;SDS011;2665;53.112;7.358;2022-10-17T05:32:34;9.57;;;4.80;;
5285;SDS011;2665;53.112;7.358;2022-10-17T05:35:00;9.30;;;4.67;;
5285;SDS011;2665;53.112;7.358;2022-10-17T05:37:28;7.67;;;4.67;;
5285;SDS011;2665;53.112;7.358;2022-10-17T05:39:54;6.53;;;4.37;;
5285;SDS011;2665;53.112;7.358;2022-10-17T05:42:20;5.60;;;4.57;;
5285;SDS011;2665;53.112;7.358;2022-10-17T05:44:46;7.27;;;4.90;;
5285;SDS011;2665;53.112;7.358;2022-10-17T05:47:11;6.53;;;4.80;;
5285;SDS011;2665;53.112;7.358;2022-10-17T05:49:37;5.57;;;4.77;;
5285;SDS011;2665;53.112;7.358;2022-10-17T05:52:02;6.97;;;4.97;;
5285;SDS011;2665;53.112;7.358;2022-10-17T05:54:28;6.60;;;4.57;;
5285;SDS011;2665;53.112;7.358;2022-10-17T05:56:54;6.60;;;5.07;;
5285;SDS011;2665;53.112;7.358;2022-10-17T05:59:20;9.10;;;4.93;;
5285;SDS011;2665;53.112;7.358;2022-10-17T06:01:46;6.73;;;4.43;;
5285;SDS011;2665;53.112;7.358;2022-10-17T06:04:12;7.30;;;5.33;;
5285;SDS011;2665;53.112;7.358;2022-10-17T06:06:38;8.90;;;4.70;;
5285;SDS011;2665;53.112;7.358;2022-10-17T06:09:04;5.10;;;4.30;;
5285;SDS011;2665;53.112;7.358;2022-10-17T06:11:31;5.73;;;4.83;;
5285;SDS011;2665;53.112;7.358;2022-10-17T06:13:58;10.67;;;6.67;;
5285;SDS011;2665;53.112;7.358;2022-10-17T06:16:23;5.67;;;5.07;;
5285;SDS011;2665;53.112;7.358;2022-10-17T06:18:49;9.33;;;5.10;;
5285;SDS011;2665;53.112;7.358;2022-10-17T06:21:16;6.00;;;5.00;;
5285;SDS011;2665;53.112;7.358;2022-10-17T06:23:45;9.50;;;5.73;;
5285;SDS011;2665;53.112;7.358;2022-10-17T06:26:12;6.13;;;5.17;;
5285;SDS011;2665;53.112;7.358;2022-10-17T06:28:37;6.77;;;5.40;;
5285;SDS011;2665;53.112;7.358;2022-10-17T06:31:04;9.70;;;5.10;;
5285;SDS011;2665;53.112;7.358;2022-10-17T06:33:31;8.43;;;5.90;;
5285;SDS011;2665;53.112;7.358;2022-10-17T06:35:56;6.53;;;4.93;;
5285;SDS011;2665;53.112;7.358;2022-10-17T06:38:22;11.40;;;5.60;;
5285;SDS011;2665;53.112;7.358;2022-10-17T06:40:47;16.60;;;5.50;;
5285;SDS011;2665;53.112;7.358;2022-10-17T06:43:13;7.70;;;4.83;;
5285;SDS011;2665;53.112;7.358;2022-10-17T06:45:39;7.50;;;5.20;;
5285;SDS011;2665;53.112;7.358;2022-10-17T06:48:05;5.73;;;4.80;;
5285;SDS011;2665;53.112;7.358;2022-10-17T06:50:31;5.40;;;4.50;;
5285;SDS011;2665;53.112;7.358;2022-10-17T06:52:57;8.37;;;4.43;;
5285;SDS011;2665;53.112;7.358;2022-10-17T06:55:23;6.40;;;4.37;;
5285;SDS011;2665;53.112;7.358;2022-10-17T06:57:48;6.27;;;4.60;;
5285;SDS011;2665;53.112;7.358;2022-10-17T07:00:15;6.83;;;5.63;;
5285;SDS011;2665;53.112;7.358;2022-10-17T07:02:41;8.90;;;4.37;;
5285;SDS011;2665;53.112;7.358;2022-10-17T07:05:07;6.00;;;5.27;;
5285;SDS011;2665;53.112;7.358;2022-10-17T07:07:33;10.60;;;5.00;;
5285;SDS011;2665;53.112;7.358;2022-10-17T07:09:59;13.63;;;6.10;;
5285;SDS011;2665;53.112;7.358;2022-10-17T07:12:24;9.33;;;5.43;;
5285;SDS011;2665;53.112;7.358;2022-10-17T07:14:50;9.93;;;6.60;;
5285;SDS011;2665;53.112;7.358;2022-10-17T07:17:17;6.20;;;5.00;;
5285;SDS011;2665;53.112;7.358;2022-10-17T07:19:45;7.27;;;5.20;;
5285;SDS011;2665;53.112;7.358;2022-10-17T07:22:11;9.83;;;5.63;;
5285;SDS011;2665;53.112;7.358;2022-10-17T07:24:37;9.90;;;5.90;;
5285;SDS011;2665;53.112;7.358;2022-10-17T07:27:03;7.07;;;5.37;;
5285;SDS011;2665;53.112;7.358;2022-10-17T07:29:28;5.53;;;4.43;;
5285;SDS011;2665;53.112;7.358;2022-10-17T07:31:54;8.50;;;4.80;;
5285;SDS011;2665;53.112;7.358;2022-10-17T07:34:19;8.00;;;4.80;;
5285;SDS011;2665;53.112;7.358;2022-10-17T07:36:45;6.50;;;4.23;;
5285;SDS011;2665;53.112;7.358;2022-10-17T07:39:11;8.03;;;4.90;;
5285;SDS011;2665;53.112;7.358;2022-10-17T07:41:37;4.70;;;3.70;;
5285;SDS011;2665;53.112;7.358;2022-10-17T07:44:02;6.60;;;5.00;;
5285;SDS011;2665;53.112;7.358;2022-10-17T07:46:28;5.27;;;4.20;;
5285;SDS011;2665;53.112;7.358;2022-10-17T07:48:54;5.83;;;4.90;;
5285;SDS011;2665;53.112;7.358;2022-10-17T07:51:19;9.60;;;3.93;;
5285;SDS011;2665;53.112;7.358;2022-10-17T07:53:46;5.37;;;4.17;;
5285;SDS011;2665;53.112;7.358;2022-10-17T07:56:12;7.97;;;4.37;;
5285;SDS011;2665;53.112;7.358;2022-10-17T07:58:38;7.73;;;4.23;;
5285;SDS011;2665;53.112;7.358;2022-10-17T08:01:05;6.10;;;3.57;;
5285;SDS011;2665;53.112;7.358;2022-10-17T08:03:32;5.47;;;4.03;;
5285;SDS011;2665;53.112;7.358;2022-10-17T08:05:58;4.80;;;3.60;;
5285;SDS011;2665;53.112;7.358;2022-10-17T08:08:25;4.70;;;3.43;;
5285;SDS011;2665;53.112;7.358;2022-10-17T08:10:51;4.53;;;3.40;;
5285;SDS011;2665;53.112;7.358;2022-10-17T08:13:19;5.23;;;4.00;;
5285;SDS011;2665;53.112;7.358;2022-10-17T08:15:45;4.73;;;3.73;;
5285;SDS011;2665;53.112;7.358;2022-10-17T08:18:12;5.00;;;4.00;;
5285;SDS011;2665;53.112;7.358;2022-10-17T08:20:38;11.30;;;3.90;;
5285;SDS011;2665;53.112;7.358;2022-10-17T08:23:05;6.20;;;3.73;;
5285;SDS011;2665;53.112;7.358;2022-10-17T08:25:30;4.87;;;3.10;;
5285;SDS011;2665;53.112;7.358;2022-10-17T08:27:57;6.30;;;3.33;;
5285;SDS011;2665;53.112;7.358;2022-10-17T08:30:23;5.30;;;3.50;;
5285;SDS011;2665;53.112;7.358;2022-10-17T08:32:49;6.80;;;3.30;;
5285;SDS011;2665;53.112;7.358;2022-10-17T08:35:14;8.50;;;3.77;;
5285;SDS011;2665;53.112;7.358;2022-10-17T08:37:40;8.83;;;4.03;;
5285;SDS011;2665;53.112;7.358;2022-10-17T08:40:06;8.10;;;3.20;;
5285;SDS011;2665;53.112;7.358;2022-10-17T08:42:54;4.43;;;3.23;;
5285;SDS011;2665;53.112;7.358;2022-10-17T08:45:46;8.40;;;3.67;;
5285;SDS011;2665;53.112;7.358;2022-10-17T08:48:17;4.00;;;3.10;;
5285;SDS011;2665;53.112;7.358;2022-10-17T08:50:55;6.33;;;3.30;;
5285;SDS011;2665;53.112;7.358;2022-10-17T08:56:22;3.93;;;3.30;;
5285;SDS011;2665;53.112;7.358;2022-10-17T08:58:49;3.50;;;2.80;;
5285;SDS011;2665;53.112;7.358;2022-10-17T09:10:03;5.23;;;3.03;;
5285;SDS011;2665;53.112;7.358;2022-10-17T09:18:28;6.00;;;3.43;;
5285;SDS011;2665;53.112;7.358;2022-10-17T09:26:18;5.43;;;3.60;;
5285;SDS011;2665;53.112;7.358;2022-10-17T09:28:46;10.20;;;3.50;;
5285;SDS011;2665;53.112;7.358;2022-10-17T09:31:42;3.40;;;2.33;;
5285;SDS011;2665;53.112;7.358;2022-10-17T09:34:09;4.80;;;3.13;;
5285;SDS011;2665;53.112;7.358;2022-10-17T09:36:38;6.70;;;3.10;;
5285;SDS011;2665;53.112;7.358;2022-10-17T09:39:15;3.50;;;3.07;;
5285;SDS011;2665;53.112;7.358;2022-10-17T09:42:01;6.23;;;3.20;;
5285;SDS011;2665;53.112;7.358;2022-10-17T09:49:54;4.93;;;4.00;;
5285;SDS011;2665;53.112;7.358;2022-10-17T09:52:24;12.30;;;4.27;;
5285;SDS011;2665;53.112;7.358;2022-10-17T09:57:49;4.47;;;3.73;;
5285;SDS011;2665;53.112;7.358;2022-10-17T10:00:21;3.83;;;3.00;;
5285;SDS011;2665;53.112;7.358;2022-10-17T10:03:14;4.70;;;3.27;;
5285;SDS011;2665;53.112;7.358;2022-10-17T10:05:58;4.93;;;3.63;;
5285;SDS011;2665;53.112;7.358;2022-10-17T10:08:31;7.67;;;3.90;;
5285;SDS011;2665;53.112;7.358;2022-10-17T10:11:08;6.30;;;3.53;;
5285;SDS011;2665;53.112;7.358;2022-10-17T10:13:34;7.80;;;3.27;;
5285;SDS011;2665;53.112;7.358;2022-10-17T10:16:22;7.33;;;3.77;;
5285;SDS011;2665;53.112;7.358;2022-10-17T10:18:54;5.07;;;3.67;;
5285;SDS011;2665;53.112;7.358;2022-10-17T10:21:21;5.00;;;4.03;;
5285;SDS011;2665;53.112;7.358;2022-10-17T10:26:46;7.70;;;3.67;;
5285;SDS011;2665;53.112;7.358;2022-10-17T10:29:55;6.43;;;4.03;;
5285;SDS011;2665;53.112;7.358;2022-10-17T10:32:19;6.03;;;3.50;;
5285;SDS011;2665;53.112;7.358;2022-10-17T10:34:53;9.03;;;3.40;;
5285;SDS011;2665;53.112;7.358;2022-10-17T10:37:27;4.93;;;4.10;;
5285;SDS011;2665;53.112;7.358;2022-10-17T10:39:57;4.33;;;3.47;;
5285;SDS011;2665;53.112;7.358;2022-10-17T10:42:27;4.43;;;3.63;;
5285;SDS011;2665;53.112;7.358;2022-10-17T10:45:00;5.57;;;4.30;;
5285;SDS011;2665;53.112;7.358;2022-10-17T10:47:38;4.30;;;3.90;;
5285;SDS011;2665;53.112;7.358;2022-10-17T10:55:57;5.47;;;3.97;;
5285;SDS011;2665;53.112;7.358;2022-10-17T10:58:33;6.43;;;3.83;;
5285;SDS011;2665;53.112;7.358;2022-10-17T11:01:00;5.60;;;3.60;;
5285;SDS011;2665;53.112;7.358;2022-10-17T11:03:33;4.60;;;3.20;;
5285;SDS011;2665;53.112;7.358;2022-10-17T11:06:08;4.40;;;3.57;;
5285;SDS011;2665;53.112;7.358;2022-10-17T11:08:39;5.13;;;3.90;;
5285;SDS011;2665;53.112;7.358;2022-10-17T11:13:50;5.70;;;4.03;;
5285;SDS011;2665;53.112;7.358;2022-10-17T11:21:46;4.73;;;3.50;;
5285;SDS011;2665;53.112;7.358;2022-10-17T11:24:45;6.80;;;4.10;;
5285;SDS011;2665;53.112;7.358;2022-10-17T11:27:14;6.20;;;5.00;;
5285;SDS011;2665;53.112;7.358;2022-10-17T11:29:40;9.43;;;4.70;;
5285;SDS011;2665;53.112;7.358;2022-10-17T11:32:12;5.97;;;5.10;;
5285;SDS011;2665;53.112;7.358;2022-10-17T11:34:44;6.63;;;5.00;;
5285;SDS011;2665;53.112;7.358;2022-10-17T11:37:17;8.50;;;5.50;;
5285;SDS011;2665;53.112;7.358;2022-10-17T11:42:18;7.43;;;4.33;;
5285;SDS011;2665;53.112;7.358;2022-10-17T11:44:49;10.07;;;5.90;;
5285;SDS011;2665;53.112;7.358;2022-10-17T11:55:44;5.00;;;4.00;;
5285;SDS011;2665;53.112;7.358;2022-10-17T12:03:38;6.77;;;4.80;;
5285;SDS011;2665;53.112;7.358;2022-10-17T12:06:19;10.30;;;4.97;;
5285;SDS011;2665;53.112;7.358;2022-10-17T12:17:02;8.50;;;4.53;;
5285;SDS011;2665;53.112;7.358;2022-10-17T12:19:30;6.37;;;4.33;;
5285;SDS011;2665;53.112;7.358;2022-10-17T12:22:02;7.30;;;5.57;;
5285;SDS011;2665;53.112;7.358;2022-10-17T12:24:53;6.03;;;4.50;;
5285;SDS011;2665;53.112;7.358;2022-10-17T12:27:22;4.80;;;4.40;;
5285;SDS011;2665;53.112;7.358;2022-10-17T12:32:51;10.37;;;4.70;;
5285;SDS011;2665;53.112;7.358;2022-10-17T12:35:47;4.93;;;3.60;;
5285;SDS011;2665;53.112;7.358;2022-10-17T12:38:19;7.27;;;4.27;;
5285;SDS011;2665;53.112;7.358;2022-10-17T12:40:47;5.20;;;3.90;;
5285;SDS011;2665;53.112;7.358;2022-10-17T12:44:05;3.80;;;3.43;;
5285;SDS011;2665;53.112;7.358;2022-10-17T12:46:40;7.20;;;4.63;;
5285;SDS011;2665;53.112;7.358;2022-10-17T12:49:19;8.07;;;4.20;;
5285;SDS011;2665;53.112;7.358;2022-10-17T12:52:04;3.67;;;3.10;;
5285;SDS011;2665;53.112;7.358;2022-10-17T12:54:54;7.43;;;4.80;;
5285;SDS011;2665;53.112;7.358;2022-10-17T13:02:55;4.63;;;3.83;;
5285;SDS011;2665;53.112;7.358;2022-10-17T13:05:34;6.70;;;3.77;;
5285;SDS011;2665;53.112;7.358;2022-10-17T13:08:02;7.03;;;3.60;;
5285;SDS011;2665;53.112;7.358;2022-10-17T13:10:32;4.30;;;3.70;;
5285;SDS011;2665;53.112;7.358;2022-10-17T13:13:05;3.50;;;3.17;;
5285;SDS011;2665;53.112;7.358;2022-10-17T13:15:35;5.10;;;3.87;;
5285;SDS011;2665;53.112;7.358;2022-10-17T13:18:01;4.40;;;3.43;;
5285;SDS011;2665;53.112;7.358;2022-10-17T13:20:28;4.37;;;2.83;;
5285;SDS011;2665;53.112;7.358;2022-10-17T13:22:55;3.30;;;2.57;;
5285;SDS011;2665;53.112;7.358;2022-10-17T13:25:21;4.50;;;3.27;;
5285;SDS011;2665;53.112;7.358;2022-10-17T13:27:48;3.37;;;3.07;;
5285;SDS011;2665;53.112;7.358;2022-10-17T13:30:28;8.97;;;3.60;;
5285;SDS011;2665;53.112;7.358;2022-10-17T13:32:55;6.13;;;3.33;;
5285;SDS011;2665;53.112;7.358;2022-10-17T13:35:35;7.60;;;3.07;;
5285;SDS011;2665;53.112;7.358;2022-10-17T13:38:03;3.77;;;3.03;;
5285;SDS011;2665;53.112;7.358;2022-10-17T13:40:31;4.43;;;2.93;;
5285;SDS011;2665;53.112;7.358;2022-10-17T13:43:14;3.50;;;3.03;;
5285;SDS011;2665;53.112;7.358;2022-10-17T13:45:47;3.87;;;2.90;;
5285;SDS011;2665;53.112;7.358;2022-10-17T13:48:19;4.40;;;2.80;;
5285;SDS011;2665;53.112;7.358;2022-10-17T13:50:49;4.70;;;3.47;;
5285;SDS011;2665;53.112;7.358;2022-10-17T13:58:48;3.20;;;2.50;;
5285;SDS011;2665;53.112;7.358;2022-10-17T14:01:21;5.00;;;2.80;;
5285;SDS011;2665;53.112;7.358;2022-10-17T14:03:49;5.50;;;3.90;;
5285;SDS011;2665;53.112;7.358;2022-10-17T14:06:21;3.20;;;2.53;;
5285;SDS011;2665;53.112;7.358;2022-10-17T14:08:57;3.80;;;2.70;;
5285;SDS011;2665;53.112;7.358;2022-10-17T14:11:37;3.40;;;2.40;;
5285;SDS011;2665;53.112;7.358;2022-10-17T14:14:05;3.47;;;2.27;;
5285;SDS011;2665;53.112;7.358;2022-10-17T14:16:40;5.53;;;2.57;;
5285;SDS011;2665;53.112;7.358;2022-10-17T14:19:13;3.53;;;3.07;;
5285;SDS011;2665;53.112;7.358;2022-10-17T14:22:13;2.70;;;2.20;;
5285;SDS011;2665;53.112;7.358;2022-10-17T14:24:46;4.30;;;2.70;;
5285;SDS011;2665;53.112;7.358;2022-10-17T14:29:52;3.77;;;2.87;;
5285;SDS011;2665;53.112;7.358;2022-10-17T14:32:19;6.50;;;2.70;;
5285;SDS011;2665;53.112;7.358;2022-10-17T14:34:50;3.67;;;2.53;;
5285;SDS011;2665;53.112;7.358;2022-10-17T14:38:01;4.50;;;2.73;;
5285;SDS011;2665;53.112;7.358;2022-10-17T14:40:18;4.10;;;2.53;;
5285;SDS011;2665;53.112;7.358;2022-10-17T14:42:47;2.80;;;2.10;;
5285;SDS011;2665;53.112;7.358;2022-10-17T14:45:16;4.73;;;1.70;;
5285;SDS011;2665;53.112;7.358;2022-10-17T14:47:47;3.10;;;1.93;;
5285;SDS011;2665;53.112;7.358;2022-10-17T14:52:39;3.77;;;1.53;;
5285;SDS011;2665;53.112;7.358;2022-10-17T14:55:23;2.77;;;1.73;;
5285;SDS011;2665;53.112;7.358;2022-10-17T14:57:52;2.87;;;1.43;;
5285;SDS011;2665;53.112;7.358;2022-10-17T15:00:18;2.20;;;1.30;;
5285;SDS011;2665;53.112;7.358;2022-10-17T15:02:45;2.67;;;1.50;;
5285;SDS011;2665;53.112;7.358;2022-10-17T15:05:12;2.80;;;1.73;;
5285;SDS011;2665;53.112;7.358;2022-10-17T15:07:38;3.07;;;1.40;;
5285;SDS011;2665;53.112;7.358;2022-10-17T15:10:05;2.77;;;1.50;;
5285;SDS011;2665;53.112;7.358;2022-10-17T15:12:31;2.70;;;1.50;;
5285;SDS011;2665;53.112;7.358;2022-10-17T15:14:57;3.80;;;1.50;;
5285;SDS011;2665;53.112;7.358;2022-10-17T15:17:24;2.37;;;1.53;;
5285;SDS011;2665;53.112;7.358;2022-10-17T15:19:49;2.60;;;1.40;;
5285;SDS011;2665;53.112;7.358;2022-10-17T15:22:15;3.00;;;1.70;;
5285;SDS011;2665;53.112;7.358;2022-10-17T15:24:42;2.23;;;1.40;;
5285;SDS011;2665;53.112;7.358;2022-10-17T15:27:28;2.20;;;1.37;;
5285;SDS011;2665;53.112;7.358;2022-10-17T15:29:56;2.90;;;1.40;;
5285;SDS011;2665;53.112;7.358;2022-10-17T15:32:21;3.50;;;0.90;;
5285;SDS011;2665;53.112;7.358;2022-10-17T15:34:47;2.67;;;0.90;;
5285;SDS011;2665;53.112;7.358;2022-10-17T15:37:20;2.57;;;0.90;;
5285;SDS011;2665;53.112;7.358;2022-10-17T15:39:48;2.90;;;0.77;;
5285;SDS011;2665;53.112;7.358;2022-10-17T15:42:21;1.70;;;0.60;;
5285;SDS011;2665;53.112;7.358;2022-10-17T15:44:52;1.80;;;0.80;;
5285;SDS011;2665;53.112;7.358;2022-10-17T15:47:20;2.17;;;0.90;;
5285;SDS011;2665;53.112;7.358;2022-10-17T15:49:48;2.73;;;1.23;;
5285;SDS011;2665;53.112;7.358;2022-10-17T15:52:14;3.00;;;1.00;;
5285;SDS011;2665;53.112;7.358;2022-10-17T15:54:40;7.43;;;1.20;;
5285;SDS011;2665;53.112;7.358;2022-10-17T15:57:07;2.33;;;1.00;;
5285;SDS011;2665;53.112;7.358;2022-10-17T15:59:39;3.00;;;1.30;;
5285;SDS011;2665;53.112;7.358;2022-10-17T16:02:09;3.10;;;1.73;;
5285;SDS011;2665;53.112;7.358;2022-10-17T16:04:38;2.20;;;1.20;;
5285;SDS011;2665;53.112;7.358;2022-10-17T16:07:03;3.03;;;1.50;;
5285;SDS011;2665;53.112;7.358;2022-10-17T16:09:29;2.50;;;1.17;;
5285;SDS011;2665;53.112;7.358;2022-10-17T16:11:54;2.33;;;1.10;;
5285;SDS011;2665;53.112;7.358;2022-10-17T16:14:20;1.90;;;1.00;;
5285;SDS011;2665;53.112;7.358;2022-10-17T16:16:46;2.90;;;1.30;;
5285;SDS011;2665;53.112;7.358;2022-10-17T16:19:11;2.00;;;1.10;;
5285;SDS011;2665;53.112;7.358;2022-10-17T16:21:38;2.50;;;1.10;;
5285;SDS011;2665;53.112;7.358;2022-10-17T16:24:04;2.23;;;1.00;;
5285;SDS011;2665;53.112;7.358;2022-10-17T16:26:30;3.37;;;1.20;;
5285;SDS011;2665;53.112;7.358;2022-10-17T16:28:56;1.90;;;0.90;;
5285;SDS011;2665;53.112;7.358;2022-10-17T16:31:27;3.03;;;1.10;;
5285;SDS011;2665;53.112;7.358;2022-10-17T16:33:57;3.17;;;1.10;;
5285;SDS011;2665;53.112;7.358;2022-10-17T16:36:24;4.60;;;1.10;;
5285;SDS011;2665;53.112;7.358;2022-10-17T16:38:50;2.53;;;1.20;;
5285;SDS011;2665;53.112;7.358;2022-10-17T16:41:22;2.20;;;1.10;;
5285;SDS011;2665;53.112;7.358;2022-10-17T16:43:53;2.10;;;1.10;;
5285;SDS011;2665;53.112;7.358;2022-10-17T16:46:20;4.60;;;1.00;;
5285;SDS011;2665;53.112;7.358;2022-10-17T16:48:47;2.20;;;1.00;;
5285;SDS011;2665;53.112;7.358;2022-10-17T16:51:13;2.33;;;0.93;;
5285;SDS011;2665;53.112;7.358;2022-10-17T16:53:40;1.90;;;1.10;;
5285;SDS011;2665;53.112;7.358;2022-10-17T16:56:12;2.30;;;0.90;;
5285;SDS011;2665;53.112;7.358;2022-10-17T16:58:40;2.07;;;1.00;;
5285;SDS011;2665;53.112;7.358;2022-10-17T17:01:07;1.70;;;0.90;;
5285;SDS011;2665;53.112;7.358;2022-10-17T17:03:35;2.50;;;1.13;;
5285;SDS011;2665;53.112;7.358;2022-10-17T17:06:02;2.50;;;1.10;;
5285;SDS011;2665;53.112;7.358;2022-10-17T17:08:29;2.83;;;1.50;;
5285;SDS011;2665;53.112;7.358;2022-10-17T17:10:55;2.00;;;1.03;;
5285;SDS011;2665;53.112;7.358;2022-10-17T17:13:22;3.40;;;1.10;;
5285;SDS011;2665;53.112;7.358;2022-10-17T17:15:48;2.60;;;1.17;;
5285;SDS011;2665;53.112;7.358;2022-10-17T17:18:18;3.27;;;1.60;;
5285;SDS011;2665;53.112;7.358;2022-10-17T17:20:46;3.17;;;1.33;;
5285;SDS011;2665;53.112;7.358;2022-10-17T17:23:12;2.20;;;1.10;;
5285;SDS011;2665;53.112;7.358;2022-10-17T17:25:38;2.30;;;1.40;;
5285;SDS011;2665;53.112;7.358;2022-10-17T17:28:04;2.40;;;1.50;;
5285;SDS011;2665;53.112;7.358;2022-10-17T17:30:33;2.40;;;1.70;;
5285;SDS011;2665;53.112;7.358;2022-10-17T17:33:00;3.40;;;1.43;;
5285;SDS011;2665;53.112;7.358;2022-10-17T17:35:27;3.37;;;1.23;;
5285;SDS011;2665;53.112;7.358;2022-10-17T17:37:52;2.13;;;1.13;;
5285;SDS011;2665;53.112;7.358;2022-10-17T17:40:18;4.43;;;1.83;;
5285;SDS011;2665;53.112;7.358;2022-10-17T17:42:44;5.03;;;1.47;;